Henderson, Tennessee
Current Conditions -  °F | °C
As of 11:53 AM on Thursday 29 Jan 2015 (Local Time) from KMKL Reporting Station
Clear Clear  
Wind Chill: 63°   Ceiling: Unl
Heat Index: 63°   Visibility: 10mi
Dew Point: 43°   Wind: 17mph
Humidity: 48%   Direction: 290°WNW
Pressure: 30.07"   Gusts: NA
Location:  35.44°N, 88.64°W
Report Text: KMKL 291753Z 29015KT 10SM CLR 17/06 A3007 RMK AO2 SLP182 T01720061 10178 20106 50009
Loading
Personal Weather Stations






























Interactive Weather Map New forecast layout! Learn more

10-Day Weather Forecast

Advertisements
Track Severe Weather on mobile